This is the latest recevied weather packets stored in our database for station/object WB9YJT. If no packets are shown the sender has not sent any weather packets the latest 10 day(s).
| Time | Temp. | Humidity | Pressure | Rain* | Wind** | Luminosity | Snow |
|---|---|---|---|---|---|---|---|
| 1788551662 | 34.44° C | 55% | - | 0 mm | - | - | - |
| 1788551356 | 35° C | 54% | - | 0 mm | - | - | - |
| 1788551055 | 34.44° C | 56% | - | 0 mm | - | - | - |
| 1788550751 | 34.44° C | 55% | - | 0 mm | - | - | - |
| 1788550447 | 35° C | 54% | - | 0 mm | - | - | - |
| 1788550142 | 35° C | 53% | - | 0 mm | - | - | - |
| 1788549837 | 33.89° C | 57% | - | 0 mm | - | - | - |
| 1788549544 | 34.44° C | 55% | - | 0 mm | - | - | - |
| 1788549230 | 34.44° C | 55% | - | 0 mm | - | - | - |
| 1788548926 | 34.44° C | 55% | - | 0 mm | - | - | - |
| 1788548621 | 34.44° C | 56% | - | 0 mm | - | - | - |
| 1788548318 | 34.44° C | 54% | - | 0 mm | - | - | - |
| 1788548013 | 34.44° C | 54% | - | 0 mm | - | - | - |
| 1788547712 | 34.44° C | 54% | - | 0 mm | - | - | - |
| 1788547407 | 35° C | 55% | - | 0 mm | - | - | - |
| 1788547103 | 34.44° C | 56% | - | 0 mm | - | - | - |
| 1788546798 | 33.33° C | 56% | - | 0 mm | - | - | - |
| 1788546493 | 33.33° C | 57% | - | 0 mm | - | - | - |
| 1788546188 | 33.33° C | 57% | - | 0 mm | - | - | - |
| 1788545884 | 33.33° C | 57% | - | 0 mm | - | - | - |
| 1788545583 | 32.78° C | 58% | - | 0 mm | - | - | - |
| 1788545279 | 32.78° C | 59% | - | 0 mm | - | - | - |
| 1788544974 | 32.22° C | 59% | - | 0 mm | - | - | - |
| 1788544673 | 31.67° C | 60% | - | 0 mm | - | - | - |
| 1788544371 | 31.67° C | 60% | - | 0 mm | - | - | - |
* Rain latest hour (hover to see other rain measurements)
** Current wind speed in m/s (hover to see current wind gust speed)